ECLPR GCXO-GCLP
Flight info
| Callsign | ECLPR |
|---|---|
| Flight time | 0h 23m |
| Altitude | 16000 |
| Route | LALTO |
| Aircraft | B738/M-SDE2E3FGHIRWXY/LB1 |
Departure
| Time | 2026-04-21 21:06 |
|---|---|
| Airport | Tenerife Norte-Ciudad de La Laguna Airport (GCXO) |
Arrival
| Time | 2026-04-21 21:29 |
|---|---|
| Airport | Gran Canaria Airport (GCLP) |
| Time | Latitude | Longitude | Altitude | Speed | Heading |
|---|---|---|---|---|---|
| 2026-04-21 20:34 | 28.48537 | -16.34282 | 2059 ft | 0 kts | 20° |
| 2026-04-21 20:57 | 28.48532 | -16.34284 | 2059 ft | 4 kts | 20° |
| 2026-04-21 20:58 | 28.48506 | -16.34295 | 2059 ft | 4 kts | 20° |
| 2026-04-21 20:58 | 28.48481 | -16.34306 | 2058 ft | 4 kts | 24° |
| 2026-04-21 20:58 | 28.48459 | -16.34321 | 2060 ft | 4 kts | 47° |
| 2026-04-21 20:58 | 28.48447 | -16.34345 | 2060 ft | 4 kts | 93° |
| 2026-04-21 20:59 | 28.48449 | -16.34356 | 2060 ft | 1 kts | 110° |
| 2026-04-21 21:01 | 28.48448 | -16.34354 | 2060 ft | 2 kts | 110° |
| 2026-04-21 21:01 | 28.48432 | -16.34308 | 2060 ft | 8 kts | 111° |
| 2026-04-21 21:02 | 28.48412 | -16.34247 | 2060 ft | 9 kts | 109° |
| 2026-04-21 21:02 | 28.48390 | -16.34174 | 2060 ft | 11 kts | 111° |
| 2026-04-21 21:02 | 28.48352 | -16.34067 | 2060 ft | 18 kts | 111° |
| 2026-04-21 21:02 | 28.48309 | -16.33931 | 2059 ft | 19 kts | 110° |
| 2026-04-21 21:03 | 28.48260 | -16.33781 | 2056 ft | 22 kts | 110° |
| 2026-04-21 21:03 | 28.48200 | -16.33613 | 2052 ft | 24 kts | 111° |
| 2026-04-21 21:03 | 28.48142 | -16.33427 | 2046 ft | 26 kts | 110° |
| 2026-04-21 21:03 | 28.48076 | -16.33231 | 2041 ft | 27 kts | 111° |
| 2026-04-21 21:04 | 28.48007 | -16.33023 | 2031 ft | 28 kts | 110° |
| 2026-04-21 21:04 | 28.47944 | -16.32835 | 2026 ft | 24 kts | 110° |
| 2026-04-21 21:04 | 28.47886 | -16.32662 | 2014 ft | 13 kts | 110° |
| 2026-04-21 21:04 | 28.47848 | -16.32580 | 2013 ft | 14 kts | 135° |
| 2026-04-21 21:05 | 28.47771 | -16.32535 | 2010 ft | 11 kts | 184° |
| 2026-04-21 21:05 | 28.47743 | -16.32565 | 2011 ft | 4 kts | 277° |
| 2026-04-21 21:05 | 28.47751 | -16.32592 | 2012 ft | 5 kts | 288° |
| 2026-04-21 21:05 | 28.47820 | -16.32808 | 2021 ft | 66 kts | 290° |
| 2026-04-21 21:06 | 28.48073 | -16.33564 | 2050 ft | 136 kts | 290° |
| 2026-04-21 21:06 | 28.48455 | -16.34738 | 2439 ft | 162 kts | 291° |
| 2026-04-21 21:06 | 28.48846 | -16.35920 | 3451 ft | 158 kts | 291° |
| 2026-04-21 21:06 | 28.49238 | -16.37099 | 4352 ft | 159 kts | 291° |
| 2026-04-21 21:07 | 28.49647 | -16.38298 | 5199 ft | 167 kts | 291° |
| 2026-04-21 21:07 | 28.50037 | -16.39590 | 5971 ft | 178 kts | 290° |
| 2026-04-21 21:07 | 28.50437 | -16.40943 | 6878 ft | 180 kts | 292° |
| 2026-04-21 21:07 | 28.50926 | -16.42301 | 7364 ft | 205 kts | 291° |
| 2026-04-21 21:08 | 28.51487 | -16.43929 | 7487 ft | 236 kts | 291° |
| 2026-04-21 21:08 | 28.52121 | -16.45783 | 7697 ft | 265 kts | 291° |
| 2026-04-21 21:08 | 28.52941 | -16.47721 | 8418 ft | 276 kts | 295° |
| 2026-04-21 21:08 | 28.53711 | -16.49738 | 9301 ft | 280 kts | 291° |
| 2026-04-21 21:09 | 28.54569 | -16.51746 | 10159 ft | 287 kts | 307° |
| 2026-04-21 21:09 | 28.56161 | -16.53187 | 10583 ft | 313 kts | 334° |
| 2026-04-21 21:09 | 28.58395 | -16.53648 | 10785 ft | 345 kts | 1° |
| 2026-04-21 21:09 | 28.60820 | -16.53038 | 11029 ft | 370 kts | 20° |
| 2026-04-21 21:10 | 28.63121 | -16.51617 | 11564 ft | 383 kts | 35° |
| 2026-04-21 21:10 | 28.65029 | -16.49472 | 12253 ft | 389 kts | 54° |
| 2026-04-21 21:10 | 28.66163 | -16.46679 | 13016 ft | 393 kts | 77° |
| 2026-04-21 21:10 | 28.66230 | -16.43572 | 13787 ft | 395 kts | 101° |
| 2026-04-21 21:11 | 28.65222 | -16.40703 | 14506 ft | 398 kts | 125° |
| 2026-04-21 21:11 | 28.63392 | -16.38327 | 15260 ft | 400 kts | 137° |
| 2026-04-21 21:11 | 28.61341 | -16.36171 | 15807 ft | 403 kts | 138° |
| 2026-04-21 21:11 | 28.59297 | -16.33959 | 16028 ft | 408 kts | 135° |
| 2026-04-21 21:12 | 28.57294 | -16.31561 | 16025 ft | 426 kts | 133° |
| 2026-04-21 21:12 | 28.55286 | -16.28997 | 16030 ft | 440 kts | 131° |
| 2026-04-21 21:12 | 28.53305 | -16.26302 | 16015 ft | 443 kts | 127° |
| 2026-04-21 21:12 | 28.51654 | -16.23397 | 16018 ft | 441 kts | 121° |
| 2026-04-21 21:13 | 28.50079 | -16.20398 | 16014 ft | 441 kts | 121° |
| 2026-04-21 21:13 | 28.48506 | -16.17411 | 16011 ft | 441 kts | 121° |
| 2026-04-21 21:13 | 28.47459 | -16.15446 | 16007 ft | 437 kts | 121° |
| 2026-04-21 21:13 | 28.45869 | -16.12506 | 16010 ft | 432 kts | 122° |
| 2026-04-21 21:14 | 28.43762 | -16.08650 | 16022 ft | 434 kts | 122° |
| 2026-04-21 21:14 | 28.42164 | -16.05727 | 16020 ft | 434 kts | 122° |
| 2026-04-21 21:14 | 28.41087 | -16.03757 | 16020 ft | 434 kts | 122° |
| 2026-04-21 21:14 | 28.39517 | -16.00880 | 16017 ft | 434 kts | 122° |
| 2026-04-21 21:15 | 28.37902 | -15.97920 | 16012 ft | 435 kts | 122° |
| 2026-04-21 21:15 | 28.36329 | -15.95037 | 16011 ft | 434 kts | 122° |
| 2026-04-21 21:15 | 28.34734 | -15.92117 | 16008 ft | 434 kts | 122° |
| 2026-04-21 21:15 | 28.33148 | -15.89212 | 16008 ft | 433 kts | 122° |
| 2026-04-21 21:16 | 28.31559 | -15.86305 | 16009 ft | 433 kts | 122° |
| 2026-04-21 21:16 | 28.29973 | -15.83406 | 16008 ft | 432 kts | 122° |
| 2026-04-21 21:16 | 28.28386 | -15.80506 | 15438 ft | 431 kts | 122° |
| 2026-04-21 21:16 | 28.26834 | -15.77673 | 14751 ft | 424 kts | 122° |
| 2026-04-21 21:17 | 28.25285 | -15.74845 | 13991 ft | 418 kts | 122° |
| 2026-04-21 21:17 | 28.23759 | -15.72061 | 13231 ft | 413 kts | 123° |
| 2026-04-21 21:17 | 28.22251 | -15.69312 | 12459 ft | 408 kts | 123° |
| 2026-04-21 21:17 | 28.20760 | -15.66597 | 11704 ft | 403 kts | 123° |
| 2026-04-21 21:18 | 28.19291 | -15.63926 | 11342 ft | 395 kts | 123° |
| 2026-04-21 21:18 | 28.17848 | -15.61300 | 10957 ft | 385 kts | 123° |
| 2026-04-21 21:18 | 28.16459 | -15.58774 | 10748 ft | 370 kts | 123° |
| 2026-04-21 21:18 | 28.15141 | -15.56378 | 10579 ft | 354 kts | 123° |
| 2026-04-21 21:19 | 28.13862 | -15.54054 | 10427 ft | 340 kts | 123° |
| 2026-04-21 21:19 | 28.12635 | -15.51828 | 10276 ft | 327 kts | 123° |
| 2026-04-21 21:19 | 28.11463 | -15.49703 | 10145 ft | 315 kts | 123° |
| 2026-04-21 21:19 | 28.10334 | -15.47621 | 10016 ft | 304 kts | 123° |
| 2026-04-21 21:20 | 28.09232 | -15.45571 | 9738 ft | 305 kts | 122° |
| 2026-04-21 21:20 | 28.08135 | -15.43523 | 9411 ft | 303 kts | 122° |
| 2026-04-21 21:20 | 28.07042 | -15.41486 | 9065 ft | 300 kts | 122° |
| 2026-04-21 21:20 | 28.05958 | -15.39475 | 8724 ft | 298 kts | 122° |
| 2026-04-21 21:21 | 28.04882 | -15.37488 | 8473 ft | 293 kts | 122° |
| 2026-04-21 21:21 | 28.03792 | -15.35558 | 8299 ft | 289 kts | 125° |
| 2026-04-21 21:21 | 28.02706 | -15.33683 | 8139 ft | 289 kts | 127° |
| 2026-04-21 21:21 | 28.01231 | -15.32165 | 7969 ft | 287 kts | 150° |
| 2026-04-21 21:22 | 27.99454 | -15.31127 | 7735 ft | 287 kts | 155° |
| 2026-04-21 21:22 | 27.97671 | -15.30243 | 7573 ft | 270 kts | 166° |
| 2026-04-21 21:22 | 27.95875 | -15.30160 | 7442 ft | 251 kts | 195° |
| 2026-04-21 21:22 | 27.94286 | -15.30803 | 7308 ft | 236 kts | 202° |
| 2026-04-21 21:23 | 27.92769 | -15.31470 | 6962 ft | 233 kts | 202° |
| 2026-04-21 21:23 | 27.91254 | -15.32130 | 6557 ft | 233 kts | 202° |
| 2026-04-21 21:23 | 27.89739 | -15.32789 | 6177 ft | 232 kts | 202° |
| 2026-04-21 21:23 | 27.88251 | -15.33435 | 5806 ft | 231 kts | 202° |
| 2026-04-21 21:24 | 27.86756 | -15.34086 | 5422 ft | 230 kts | 202° |
| 2026-04-21 21:24 | 27.85259 | -15.34737 | 5035 ft | 231 kts | 202° |
| 2026-04-21 21:24 | 27.83763 | -15.35386 | 4682 ft | 229 kts | 202° |
| 2026-04-21 21:24 | 27.82295 | -15.36023 | 4355 ft | 222 kts | 202° |
| 2026-04-21 21:25 | 27.80894 | -15.36633 | 4026 ft | 214 kts | 204° |
| 2026-04-21 21:25 | 27.79532 | -15.37264 | 3684 ft | 208 kts | 204° |
| 2026-04-21 21:25 | 27.78274 | -15.37999 | 3302 ft | 201 kts | 224° |
| 2026-04-21 21:25 | 27.77596 | -15.39301 | 2940 ft | 190 kts | 264° |
| 2026-04-21 21:26 | 27.77723 | -15.40722 | 2620 ft | 179 kts | 290° |
| 2026-04-21 21:26 | 27.78441 | -15.41837 | 2253 ft | 178 kts | 316° |
| 2026-04-21 21:26 | 27.79449 | -15.42667 | 1994 ft | 182 kts | 330° |
| 2026-04-21 21:26 | 27.80656 | -15.43113 | 1957 ft | 185 kts | 347° |
| 2026-04-21 21:27 | 27.81941 | -15.43209 | 2007 ft | 186 kts | 1° |
| 2026-04-21 21:27 | 27.83239 | -15.42985 | 1989 ft | 195 kts | 14° |
| 2026-04-21 21:27 | 27.84550 | -15.42505 | 1755 ft | 200 kts | 23° |
| 2026-04-21 21:27 | 27.85829 | -15.41894 | 1492 ft | 200 kts | 25° |
| 2026-04-21 21:28 | 27.87094 | -15.41341 | 1252 ft | 185 kts | 21° |
| 2026-04-21 21:28 | 27.88234 | -15.40834 | 1034 ft | 167 kts | 19° |
| 2026-04-21 21:28 | 27.90147 | -15.39997 | 590 ft | 139 kts | 19° |
| 2026-04-21 21:29 | 27.91015 | -15.39603 | 331 ft | 129 kts | 19° |
| 2026-04-21 21:29 | 27.91828 | -15.39256 | 145 ft | 123 kts | 19° |
| 2026-04-21 21:29 | 27.92586 | -15.38930 | 69 ft | 98 kts | 22° |
| 2026-04-21 21:29 | 27.93023 | -15.38735 | 57 ft | 39 kts | 18° |
| 2026-04-21 21:30 | 27.93241 | -15.38733 | 63 ft | 21 kts | 353° |
| 2026-04-21 21:30 | 27.93321 | -15.38748 | 65 ft | 9 kts | 349° |
| 2026-04-21 21:30 | 27.93361 | -15.38758 | 74 ft | 5 kts | 349° |
| 2026-04-21 21:30 | 27.93397 | -15.38761 | 69 ft | 5 kts | 347° |
| 2026-04-21 21:31 | 27.93420 | -15.38789 | 70 ft | 5 kts | 294° |
| 2026-04-21 21:31 | 27.93438 | -15.38838 | 84 ft | 10 kts | 292° |
| 2026-04-21 21:31 | 27.93417 | -15.38908 | 90 ft | 14 kts | 204° |
| 2026-04-21 21:31 | 27.93297 | -15.38960 | 83 ft | 21 kts | 201° |
| 2026-04-21 21:32 | 27.93194 | -15.39006 | 86 ft | 6 kts | 208° |
| 2026-04-21 21:32 | 27.93191 | -15.39033 | 85 ft | 3 kts | 279° |
| 2026-04-21 21:32 | 27.93198 | -15.39059 | 83 ft | 4 kts | 288° |
| 2026-04-21 21:32 | 27.93208 | -15.39090 | 84 ft | 4 kts | 291° |
| 2026-04-21 21:33 | 27.93210 | -15.39096 | 84 ft | 0 kts | 291° |